Time;durP1;ratioP1;P1;durP2;ratioP2;P2;SDS_P1;SDS_P2;PMS_P1;PMS_P2;Temp;Humidity;BMP_temperature;BMP_pressure;BME280_temperature;BME280_humidity;BME280_pressure;Samples;Min_cycle;Max_cycle;Signal;HPM_P1;HPM_P2
2024/03/17 00:01:11;;;;;;;7.37;6.97;;;21.90;62.20;;;;;;4945998;29;20480;-60
2024/03/17 00:03:37;;;;;;;7.33;7.13;;;21.90;62.30;;;;;;4945755;29;20645;-59
2024/03/17 00:06:05;;;;;;;7.07;6.87;;;21.80;62.20;;;;;;4946699;29;20480;-59
2024/03/17 00:08:31;;;;;;;8.00;7.37;;;21.80;62.20;;;;;;4945813;29;20212;-58
2024/03/17 00:10:58;;;;;;;6.97;6.73;;;21.80;62.10;;;;;;4946780;29;20445;-58
2024/03/17 00:13:24;;;;;;;7.47;7.27;;;21.80;62.20;;;;;;4944507;28;20217;-58
2024/03/17 00:15:51;;;;;;;6.43;6.33;;;21.80;62.30;;;;;;4945464;29;20472;-59
2024/03/17 00:18:18;;;;;;;7.80;7.50;;;21.80;62.20;;;;;;5028315;23;20236;-61
2024/03/17 00:20:44;;;;;;;6.87;6.67;;;21.80;62.30;;;;;;4996098;28;20451;-61
2024/03/17 00:23:13;;;;;;;6.50;6.40;;;21.80;62.30;;;;;;4983955;28;20458;-61
2024/03/17 00:25:40;;;;;;;7.20;7.00;;;21.80;62.10;;;;;;4983534;28;20479;-59
2024/03/17 00:28:06;;;;;;;7.10;6.80;;;21.80;62.80;;;;;;4981294;28;20476;-61
2024/03/17 00:30:33;;;;;;;7.57;7.37;;;21.80;62.10;;;;;;4988978;28;20977;-60
2024/03/17 00:32:59;;;;;;;6.50;6.20;;;21.80;62.00;;;;;;4987294;28;20200;-61
2024/03/17 00:35:26;;;;;;;7.23;6.93;;;21.80;62.10;;;;;;4987025;28;20954;-62
2024/03/17 00:37:53;;;;;;;6.63;6.43;;;21.80;62.00;;;;;;4986586;28;20462;-60
2024/03/17 00:40:21;;;;;;;7.10;6.80;;;21.70;61.90;;;;;;4983800;28;20455;-61
2024/03/17 00:42:47;;;;;;;6.63;6.43;;;21.70;62.00;;;;;;4991687;28;20439;-61
2024/03/17 00:45:14;;;;;;;7.00;6.90;;;21.70;62.10;;;;;;4994948;28;20443;-62
2024/03/17 00:47:40;;;;;;;7.70;7.37;;;21.70;62.20;;;;;;4995427;28;20223;-62
2024/03/17 00:50:11;;;;;;;6.33;6.23;;;21.70;62.30;;;;;;4995129;28;20443;-62
2024/03/17 00:52:39;;;;;;;6.30;6.10;;;21.70;62.10;;;;;;4995773;28;20473;-60
2024/03/17 00:55:06;;;;;;;6.70;6.50;;;21.70;61.90;;;;;;4995089;28;20486;-60
2024/03/17 00:57:33;;;;;;;7.07;6.80;;;21.70;61.90;;;;;;4989603;28;20467;-61
2024/03/17 01:00:02;;;;;;;7.03;6.83;;;21.70;62.00;;;;;;4985013;28;20510;-61
2024/03/17 01:02:28;;;;;;;6.27;6.07;;;21.70;62.10;;;;;;4987460;28;20486;-62
2024/03/17 01:04:55;;;;;;;6.10;5.90;;;21.70;62.00;;;;;;4994870;28;21035;-62
2024/03/17 01:07:21;;;;;;;6.70;6.50;;;21.70;62.00;;;;;;4995215;28;20839;-61
2024/03/17 01:09:50;;;;;;;6.50;6.30;;;21.60;61.80;;;;;;5008341;28;20449;-62
2024/03/17 01:12:17;;;;;;;6.20;6.00;;;21.70;61.90;;;;;;5014460;28;20203;-62
2024/03/17 01:14:45;;;;;;;6.17;6.00;;;21.60;61.80;;;;;;5014280;28;20450;-62
2024/03/17 01:17:11;;;;;;;5.90;5.80;;;21.60;62.00;;;;;;5014161;28;20482;-61
2024/03/17 01:19:39;;;;;;;6.33;6.13;;;21.60;61.90;;;;;;5005085;28;20490;-61
2024/03/17 01:22:05;;;;;;;8.50;8.20;;;21.60;61.90;;;;;;4994796;28;20204;-62
2024/03/17 01:24:33;;;;;;;6.90;6.70;;;21.60;61.90;;;;;;4994394;28;20542;-61
2024/03/17 01:27:01;;;;;;;7.87;7.67;;;21.60;61.90;;;;;;4994523;28;20239;-62
2024/03/17 01:29:28;;;;;;;7.70;7.40;;;21.60;61.90;;;;;;4994597;28;20468;-62
2024/03/17 01:31:55;;;;;;;8.73;8.40;;;21.60;61.80;;;;;;5003675;28;20816;-61
2024/03/17 01:34:23;;;;;;;8.23;8.03;;;21.60;61.70;;;;;;5014120;28;20792;-62
2024/03/17 01:36:49;;;;;;;7.73;7.53;;;21.60;61.70;;;;;;5014021;28;21202;-62
2024/03/17 01:39:18;;;;;;;8.67;8.40;;;21.60;61.80;;;;;;5014287;28;20525;-62
2024/03/17 01:41:46;;;;;;;7.10;6.90;;;21.60;61.70;;;;;;5013911;28;20294;-62
2024/03/17 01:44:23;;;;;;;7.17;6.97;;;21.60;61.80;;;;;;5004201;28;20447;-62
2024/03/17 01:46:50;;;;;;;6.33;6.20;;;21.60;61.90;;;;;;4994448;28;20489;-62
2024/03/17 01:49:19;;;;;;;6.23;6.03;;;21.50;61.80;;;;;;4994217;28;20457;-62
2024/03/17 01:51:46;;;;;;;6.83;6.63;;;21.60;62.00;;;;;;4994185;28;20815;-63
2024/03/17 01:54:15;;;;;;;7.10;6.90;;;21.50;61.70;;;;;;4994161;28;20814;-62
2024/03/17 01:56:41;;;;;;;6.07;5.97;;;21.60;61.80;;;;;;5004563;28;20862;-62
2024/03/17 01:59:10;;;;;;;6.60;6.40;;;21.60;61.70;;;;;;5013507;28;20464;-62
2024/03/17 02:01:36;;;;;;;6.43;6.30;;;21.60;61.70;;;;;;5013513;28;20438;-62
2024/03/17 02:04:06;;;;;;;7.77;7.57;;;21.60;61.80;;;;;;5013707;28;20449;-62
2024/03/17 02:06:34;;;;;;;7.80;7.47;;;21.60;61.70;;;;;;5013025;28;20233;-62
2024/03/17 02:09:00;;;;;;;7.90;7.60;;;21.50;61.60;;;;;;5001628;28;20819;-63
2024/03/17 02:11:28;;;;;;;6.90;6.70;;;21.50;61.60;;;;;;4993720;28;20447;-62
2024/03/17 02:13:56;;;;;;;7.23;7.03;;;21.50;61.70;;;;;;4993945;28;20441;-62
2024/03/17 02:16:23;;;;;;;8.10;7.70;;;21.50;61.70;;;;;;4994415;28;20442;-63
2024/03/17 02:18:50;;;;;;;6.60;6.40;;;21.50;61.80;;;;;;4993503;28;20626;-63
2024/03/17 02:21:17;;;;;;;10.57;9.60;;;21.50;61.80;;;;;;4993523;28;20443;-62
2024/03/17 02:23:46;;;;;;;8.20;7.90;;;21.50;61.70;;;;;;4994708;28;20434;-62
2024/03/17 02:26:12;;;;;;;7.10;6.80;;;21.50;61.60;;;;;;4993061;28;20487;-62
2024/03/17 02:28:42;;;;;;;6.80;6.60;;;21.50;61.60;;;;;;4995444;28;22014;-62
2024/03/17 02:31:09;;;;;;;7.20;6.90;;;21.50;61.50;;;;;;5012969;28;20694;-62
2024/03/17 02:33:36;;;;;;;7.40;7.20;;;21.50;61.40;;;;;;5012960;28;20545;-62
2024/03/17 02:36:03;;;;;;;7.00;6.80;;;21.50;61.50;;;;;;5012427;28;20996;-63
2024/03/17 02:41:16;;;;;;;7.13;6.90;;;21.50;61.50;;;;;;5007618;28;20433;-62
2024/03/17 02:43:44;;;;;;;7.50;7.30;;;21.50;61.50;;;;;;4993152;28;20457;-62
2024/03/17 02:46:13;;;;;;;6.97;6.77;;;21.50;61.70;;;;;;4993033;28;20483;-63
2024/03/17 02:48:44;;;;;;;7.10;6.80;;;21.50;61.50;;;;;;4992982;28;20482;-61
2024/03/17 02:51:14;;;;;;;7.03;6.83;;;21.50;61.30;;;;;;4993138;28;21097;-63
2024/03/17 02:53:42;;;;;;;7.67;7.37;;;21.50;61.30;;;;;;4998894;28;20446;-62
2024/03/17 02:56:09;;;;;;;6.93;6.73;;;21.50;61.50;;;;;;5012579;28;20438;-62
2024/03/17 02:58:41;;;;;;;6.90;6.60;;;21.50;61.30;;;;;;5012804;28;20458;-62
2024/03/17 03:01:10;;;;;;;6.80;6.60;;;21.50;61.40;;;;;;5012582;28;20918;-62
2024/03/17 03:03:38;;;;;;;7.57;7.27;;;21.50;61.40;;;;;;5012598;28;20454;-62
2024/03/17 03:06:09;;;;;;;7.20;7.00;;;21.50;61.50;;;;;;5010913;28;20560;-63
2024/03/17 03:08:36;;;;;;;6.90;6.70;;;21.50;61.40;;;;;;5013307;28;20466;-62
2024/03/17 03:11:05;;;;;;;6.70;6.50;;;21.40;61.30;;;;;;5013123;28;20446;-62
2024/03/17 03:13:32;;;;;;;6.83;6.63;;;21.50;61.50;;;;;;5013017;28;20450;-62
2024/03/17 03:16:00;;;;;;;6.90;6.70;;;21.50;61.40;;;;;;5012324;28;20943;-62
2024/03/17 03:18:28;;;;;;;7.00;6.70;;;21.50;61.20;;;;;;5004563;28;20471;-62
2024/03/17 03:20:55;;;;;;;7.33;7.13;;;21.50;61.30;;;;;;5005631;28;20450;-62
2024/03/17 03:23:23;;;;;;;7.47;7.27;;;21.50;61.40;;;;;;5012444;28;20481;-62
2024/03/17 03:25:56;;;;;;;7.33;7.13;;;21.40;61.20;;;;;;5011891;28;20456;-62
2024/03/17 03:28:22;;;;;;;6.87;6.67;;;21.40;61.20;;;;;;5012518;28;20454;-62
2024/03/17 03:30:51;;;;;;;6.90;6.70;;;21.50;61.30;;;;;;5012013;28;20772;-62
2024/03/17 03:33:19;;;;;;;6.90;6.70;;;21.50;61.30;;;;;;5012420;28;20457;-62
2024/03/17 03:35:46;;;;;;;6.70;6.50;;;21.40;61.20;;;;;;5011767;28;21115;-62
2024/03/17 03:38:14;;;;;;;7.30;7.03;;;21.40;61.10;;;;;;5012520;28;20454;-62
2024/03/17 03:40:42;;;;;;;7.50;6.90;;;21.40;61.10;;;;;;5012258;28;20483;-63
2024/03/17 03:43:09;;;;;;;6.37;6.27;;;21.40;61.20;;;;;;5002339;28;20442;-63
2024/03/17 03:45:36;;;;;;;7.07;6.83;;;21.40;61.10;;;;;;4992246;28;20443;-63
2024/03/17 03:48:03;;;;;;;7.90;7.70;;;21.40;61.10;;;;;;4992422;28;20487;-62
2024/03/17 03:50:35;;;;;;;6.80;6.60;;;21.40;61.10;;;;;;4992710;28;20439;-63
2024/03/17 03:53:02;;;;;;;7.90;7.60;;;21.40;61.20;;;;;;4992724;28;20455;-63
2024/03/17 03:55:29;;;;;;;7.30;7.10;;;21.40;61.10;;;;;;5002399;28;20967;-63
2024/03/17 03:57:56;;;;;;;6.97;6.77;;;21.40;61.00;;;;;;5012176;28;20457;-63
2024/03/17 04:00:23;;;;;;;7.23;7.03;;;21.50;61.20;;;;;;5012107;28;20792;-62
2024/03/17 04:02:52;;;;;;;7.67;7.37;;;21.40;61.10;;;;;;5012118;28;20938;-62
2024/03/17 04:05:20;;;;;;;7.87;7.67;;;21.40;61.10;;;;;;5014252;28;20453;-63
2024/03/17 04:07:50;;;;;;;7.67;7.27;;;21.40;61.20;;;;;;5005345;28;20855;-62
2024/03/17 04:10:18;;;;;;;7.30;7.10;;;21.40;61.00;;;;;;4996464;28;20446;-63
2024/03/17 04:12:45;;;;;;;8.17;7.90;;;21.40;60.90;;;;;;4996482;28;20454;-62
2024/03/17 04:15:12;;;;;;;6.60;6.40;;;21.50;61.10;;;;;;4996114;28;20795;-62
2024/03/17 04:17:39;;;;;;;7.17;6.97;;;21.40;61.10;;;;;;4996024;28;20471;-62
2024/03/17 04:20:09;;;;;;;7.20;6.90;;;21.40;61.20;;;;;;5006408;28;20438;-62
2024/03/17 04:22:36;;;;;;;6.73;6.50;;;21.40;61.20;;;;;;5015645;28;20449;-62
2024/03/17 04:25:05;;;;;;;7.03;6.90;;;21.40;61.30;;;;;;5015595;28;20449;-62
2024/03/17 04:27:31;;;;;;;7.90;7.70;;;21.40;61.10;;;;;;5014954;28;20485;-62
2024/03/17 04:30:00;;;;;;;7.97;7.77;;;21.40;61.00;;;;;;5015638;28;20441;-62
2024/03/17 04:32:28;;;;;;;7.10;6.90;;;21.40;61.30;;;;;;5015711;28;20482;-63
2024/03/17 04:34:55;;;;;;;6.80;6.70;;;21.40;61.20;;;;;;5015303;28;20525;-62
2024/03/17 04:37:22;;;;;;;7.10;6.90;;;21.40;61.10;;;;;;5009623;28;20462;-63
2024/03/17 04:39:50;;;;;;;8.57;8.27;;;21.40;61.00;;;;;;5015584;28;20449;-62
2024/03/17 04:42:19;;;;;;;7.53;7.33;;;21.40;61.10;;;;;;5015545;28;20532;-62
2024/03/17 04:44:46;;;;;;;6.83;6.63;;;21.40;61.10;;;;;;5014987;28;20802;-63
2024/03/17 04:47:13;;;;;;;7.23;6.93;;;21.50;61.10;;;;;;5015199;28;20485;-62
2024/03/17 04:49:43;;;;;;;7.40;7.20;;;21.40;61.10;;;;;;4999765;28;20452;-62
2024/03/17 04:52:11;;;;;;;7.00;6.80;;;21.40;61.10;;;;;;4995631;28;20439;-62
2024/03/17 04:54:39;;;;;;;6.93;6.73;;;21.40;61.00;;;;;;4995330;28;20473;-62
2024/03/17 04:57:05;;;;;;;7.23;7.03;;;21.40;61.10;;;;;;4995459;28;20467;-62
2024/03/17 04:59:36;;;;;;;7.43;7.23;;;21.50;60.90;;;;;;4995311;28;21149;-62
2024/03/17 05:02:06;;;;;;;7.00;6.80;;;21.50;60.70;;;;;;5011655;28;20437;-62
2024/03/17 05:04:32;;;;;;;7.33;7.13;;;21.60;60.50;;;;;;5014721;28;20955;-62
2024/03/17 05:06:59;;;;;;;7.03;6.83;;;21.60;60.50;;;;;;5014499;28;20488;-63
2024/03/17 05:09:26;;;;;;;7.40;7.20;;;21.60;60.50;;;;;;5014848;28;20445;-62
2024/03/17 05:11:53;;;;;;;7.13;6.93;;;21.60;60.30;;;;;;5015133;28;20438;-62
2024/03/17 05:14:20;;;;;;;7.70;7.50;;;21.60;60.20;;;;;;5013066;28;20904;-62
2024/03/17 05:16:50;;;;;;;7.83;7.63;;;21.60;60.20;;;;;;5013656;28;20469;-63
2024/03/17 05:19:17;;;;;;;8.00;7.70;;;21.60;60.30;;;;;;5014554;28;20784;-62
2024/03/17 05:21:44;;;;;;;7.00;6.80;;;21.60;60.30;;;;;;5014438;28;20484;-62
2024/03/17 05:24:12;;;;;;;7.30;7.10;;;21.70;60.50;;;;;;5014470;28;20454;-62
2024/03/17 05:26:42;;;;;;;7.50;7.30;;;21.70;60.40;;;;;;5013868;28;20473;-62
2024/03/17 05:29:09;;;;;;;7.20;7.00;;;21.70;60.20;;;;;;4994909;28;20878;-62
2024/03/17 05:31:36;;;;;;;8.00;7.70;;;21.70;60.30;;;;;;4994856;28;20454;-62
2024/03/17 05:34:04;;;;;;;6.90;6.70;;;21.70;60.20;;;;;;4994893;28;20545;-62
2024/03/17 05:36:33;;;;;;;7.27;7.10;;;21.80;60.30;;;;;;5006281;28;20453;-62
2024/03/17 05:39:00;;;;;;;6.80;6.70;;;21.70;60.30;;;;;;5014118;28;20470;-62
2024/03/17 05:41:28;;;;;;;7.00;6.80;;;21.70;60.20;;;;;;5010074;28;20449;-61
2024/03/17 05:43:58;;;;;;;7.87;7.67;;;21.70;60.10;;;;;;4994411;28;20501;-62
2024/03/17 05:46:26;;;;;;;7.30;7.00;;;21.70;60.20;;;;;;4994454;28;20945;-61
2024/03/17 05:48:55;;;;;;;7.10;7.00;;;21.70;60.30;;;;;;4994176;28;20560;-62
2024/03/17 05:51:27;;;;;;;7.83;7.63;;;21.70;60.40;;;;;;4994219;28;20446;-62
2024/03/17 05:53:55;;;;;;;7.63;7.43;;;21.80;60.30;;;;;;4994274;28;20443;-62
2024/03/17 05:56:22;;;;;;;7.70;7.40;;;21.80;60.30;;;;;;5005220;28;20532;-62
2024/03/17 05:58:50;;;;;;;7.23;7.03;;;21.80;61.00;;;;;;5013706;28;20552;-62
2024/03/17 06:01:19;;;;;;;7.50;7.30;;;21.80;60.30;;;;;;5013870;28;20453;-63
2024/03/17 06:03:45;;;;;;;7.20;7.00;;;21.80;60.10;;;;;;5013728;28;20460;-63
2024/03/17 06:06:13;;;;;;;8.23;8.03;;;21.80;60.40;;;;;;5013371;28;20442;-62
2024/03/17 06:08:41;;;;;;;7.60;7.40;;;21.80;60.30;;;;;;5013600;28;20573;-62
2024/03/17 06:11:08;;;;;;;7.83;7.60;;;21.80;60.30;;;;;;4999730;28;20451;-62
2024/03/17 06:13:36;;;;;;;8.30;8.00;;;21.80;60.40;;;;;;4993883;28;20458;-63
2024/03/17 06:16:04;;;;;;;8.53;8.33;;;21.80;60.40;;;;;;4993497;28;21026;-63
2024/03/17 06:18:32;;;;;;;8.53;8.23;;;21.80;60.30;;;;;;4993938;28;20463;-63
2024/03/17 06:20:59;;;;;;;7.80;7.60;;;21.80;60.10;;;;;;4993523;28;20444;-60
2024/03/17 06:23:26;;;;;;;8.60;8.30;;;21.80;60.30;;;;;;4993524;28;20446;-61
2024/03/17 06:25:56;;;;;;;8.90;8.60;;;21.90;60.40;;;;;;5008576;28;20443;-63
2024/03/17 06:28:22;;;;;;;8.10;7.90;;;21.90;60.20;;;;;;5012012;28;20909;-61
2024/03/17 06:30:56;;;;;;;8.07;7.77;;;21.90;60.90;;;;;;5012968;28;20533;-61
2024/03/17 06:33:23;;;;;;;8.03;7.83;;;21.90;60.10;;;;;;5013111;28;20476;-62
2024/03/17 06:35:49;;;;;;;8.53;8.20;;;21.90;60.10;;;;;;5012659;28;20965;-62
2024/03/17 06:38:16;;;;;;;7.67;7.43;;;21.90;60.10;;;;;;5012327;28;20469;-61
2024/03/17 06:40:48;;;;;;;8.17;7.87;;;21.90;60.10;;;;;;4997511;28;20434;-62
2024/03/17 06:43:16;;;;;;;7.90;7.60;;;21.90;60.00;;;;;;5013097;28;20788;-58
2024/03/17 06:45:43;;;;;;;8.13;7.93;;;21.90;60.00;;;;;;5012662;28;20827;-59
2024/03/17 06:48:10;;;;;;;7.93;7.73;;;21.90;60.10;;;;;;5012711;28;20490;-61
2024/03/17 06:50:40;;;;;;;8.60;8.40;;;21.90;60.10;;;;;;5013046;28;20438;-62
2024/03/17 06:53:08;;;;;;;7.60;7.40;;;21.90;60.10;;;;;;5007839;28;20439;-60
2024/03/17 06:55:35;;;;;;;7.80;7.60;;;21.90;60.10;;;;;;4992721;28;20458;-61
2024/03/17 06:58:03;;;;;;;8.30;8.07;;;21.90;60.10;;;;;;4992808;28;20462;-61
2024/03/17 07:00:31;;;;;;;8.27;7.87;;;21.90;60.20;;;;;;4992824;28;20451;-62
2024/03/17 07:02:58;;;;;;;8.00;7.70;;;21.90;60.30;;;;;;4992811;28;20450;-62
2024/03/17 07:05:24;;;;;;;8.00;7.80;;;21.90;60.20;;;;;;4992502;28;20438;-63
2024/03/17 07:07:52;;;;;;;8.33;8.03;;;21.90;60.10;;;;;;5000199;28;20589;-63
2024/03/17 07:10:18;;;;;;;8.90;8.60;;;22.00;60.10;;;;;;5012406;28;20918;-61
2024/03/17 07:12:45;;;;;;;8.87;8.60;;;21.90;59.90;;;;;;5012697;28;20874;-62
2024/03/17 07:15:12;;;;;;;8.67;8.47;;;22.00;59.90;;;;;;5011892;28;20442;-63
2024/03/17 07:17:40;;;;;;;9.00;8.80;;;22.00;59.90;;;;;;5012069;28;20477;-62
2024/03/17 07:20:11;;;;;;;8.83;8.53;;;22.00;59.80;;;;;;5012356;28;20477;-63
2024/03/17 07:22:40;;;;;;;8.33;8.13;;;22.00;59.80;;;;;;4998087;28;20897;-59
2024/03/17 07:25:10;;;;;;;8.77;8.57;;;22.00;59.80;;;;;;4992258;28;20454;-62
2024/03/17 07:27:39;;;;;;;8.73;8.43;;;22.00;59.80;;;;;;4992449;28;20847;-60
2024/03/17 07:30:09;;;;;;;8.90;8.70;;;22.00;59.90;;;;;;4992528;28;20998;-60
2024/03/17 07:32:35;;;;;;;9.43;9.13;;;22.00;59.80;;;;;;4992420;28;20475;-62
2024/03/17 07:35:04;;;;;;;8.53;8.33;;;22.00;59.80;;;;;;4992201;28;20451;-59
2024/03/17 07:37:32;;;;;;;9.87;9.57;;;22.00;59.80;;;;;;5010870;28;20477;-61
2024/03/17 07:40:00;;;;;;;8.87;8.67;;;22.00;59.90;;;;;;5011654;28;20442;-62
2024/03/17 07:42:27;;;;;;;9.20;8.60;;;22.10;59.90;;;;;;5011916;28;20488;-62
2024/03/17 07:44:55;;;;;;;8.53;8.33;;;22.10;59.80;;;;;;5011546;28;20449;-62
2024/03/17 07:47:22;;;;;;;8.13;7.93;;;22.10;59.80;;;;;;5011834;28;20871;-62
2024/03/17 07:49:48;;;;;;;8.50;8.30;;;22.10;59.80;;;;;;5011460;28;20446;-62
2024/03/17 07:52:17;;;;;;;8.63;8.43;;;22.10;59.80;;;;;;5004032;28;20442;-63
2024/03/17 07:54:46;;;;;;;8.57;8.37;;;22.10;59.70;;;;;;5011818;28;20434;-59
2024/03/17 07:57:14;;;;;;;8.70;8.50;;;22.10;60.40;;;;;;5012331;28;20501;-62
2024/03/17 07:59:42;;;;;;;9.53;9.23;;;22.10;59.60;;;;;;5012282;28;20517;-61
2024/03/17 08:02:09;;;;;;;8.60;8.40;;;22.20;59.70;;;;;;5012388;28;20450;-60
2024/03/17 08:04:39;;;;;;;9.37;9.10;;;22.20;59.70;;;;;;5008281;28;20443;-61
2024/03/17 08:07:05;;;;;;;8.97;8.77;;;22.20;59.60;;;;;;4993640;28;20463;-59
2024/03/17 08:09:33;;;;;;;9.43;9.13;;;22.20;59.70;;;;;;4993205;28;20487;-60
2024/03/17 08:12:01;;;;;;;9.30;9.00;;;22.20;59.90;;;;;;4992709;28;20453;-61
2024/03/17 08:14:28;;;;;;;9.30;9.03;;;22.20;59.90;;;;;;4992221;28;20948;-63
2024/03/17 08:16:54;;;;;;;10.10;9.80;;;22.20;59.80;;;;;;4992482;28;20443;-61
2024/03/17 08:19:21;;;;;;;9.03;8.83;;;22.20;59.90;;;;;;5001245;28;20433;-60
2024/03/17 08:21:47;;;;;;;8.80;8.60;;;22.20;60.30;;;;;;5012060;28;20203;-62
2024/03/17 08:24:14;;;;;;;9.63;9.33;;;22.20;60.30;;;;;;5012207;28;20458;-62
2024/03/17 08:26:45;;;;;;;8.80;8.60;;;22.20;60.40;;;;;;5011423;28;20817;-62
2024/03/17 08:29:12;;;;;;;8.57;8.37;;;22.20;60.30;;;;;;5011638;28;20486;-61
2024/03/17 08:31:38;;;;;;;8.70;8.50;;;22.20;60.90;;;;;;5011726;28;20449;-62
2024/03/17 08:34:04;;;;;;;9.10;8.80;;;22.20;60.20;;;;;;4998344;28;20439;-61
2024/03/17 08:36:31;;;;;;;9.40;9.20;;;22.20;60.40;;;;;;4992312;28;20204;-62
2024/03/17 08:38:58;;;;;;;9.80;9.50;;;22.20;60.40;;;;;;4992049;28;20455;-63
2024/03/17 08:41:25;;;;;;;9.20;9.00;;;22.30;60.00;;;;;;4992202;28;20486;-62
2024/03/17 08:43:53;;;;;;;9.63;9.23;;;22.20;59.40;;;;;;4992256;28;20447;-63
2024/03/17 08:46:21;;;;;;;11.37;10.53;;;22.10;58.30;;;;;;4991588;28;20451;-63
2024/03/17 08:48:49;;;;;;;10.17;9.67;;;22.20;57.70;;;;;;4992662;28;21011;-65
2024/03/17 08:51:16;;;;;;;9.47;8.97;;;22.10;54.80;;;;;;4993911;28;20446;-67
2024/03/17 08:53:43;;;;;;;10.00;9.20;;;22.00;53.00;;;;;;4995726;28;20509;-68
2024/03/17 08:56:11;;;;;;;10.33;9.67;;;22.00;51.60;;;;;;5004230;28;20442;-65
2024/03/17 08:58:38;;;;;;;9.60;9.30;;;21.90;51.50;;;;;;5014855;28;20446;-64
2024/03/17 09:01:08;;;;;;;10.20;9.80;;;21.80;51.40;;;;;;5014984;28;20450;-62
2024/03/17 09:03:35;;;;;;;10.70;10.20;;;21.80;51.00;;;;;;5012810;28;20449;-57
2024/03/17 09:06:02;;;;;;;10.67;10.20;;;21.70;50.50;;;;;;4994825;28;20458;-67
2024/03/17 09:08:29;;;;;;;11.57;11.00;;;21.70;49.90;;;;;;4995185;28;20493;-67
2024/03/17 09:10:56;;;;;;;9.90;9.50;;;21.50;49.70;;;;;;4994978;28;20537;-66
2024/03/17 09:13:25;;;;;;;11.07;10.57;;;21.40;49.70;;;;;;4996116;28;20454;-66
2024/03/17 09:15:54;;;;;;;9.30;8.90;;;21.40;49.60;;;;;;4994776;28;20494;-65
2024/03/17 09:18:23;;;;;;;8.87;8.60;;;21.40;50.00;;;;;;4994928;28;20478;-66
2024/03/17 09:20:57;;;;;;;9.90;9.60;;;21.50;49.80;;;;;;4994945;28;20482;-65
2024/03/17 09:23:26;;;;;;;10.63;10.17;;;21.40;49.30;;;;;;4994901;28;20500;-67
2024/03/17 09:25:57;;;;;;;10.60;10.10;;;21.30;49.10;;;;;;4995735;28;20891;-71
2024/03/17 09:28:23;;;;;;;10.00;9.60;;;21.40;49.60;;;;;;4994669;28;20486;-70
2024/03/17 09:30:49;;;;;;;9.63;9.00;;;21.30;49.30;;;;;;4995049;28;20445;-70
2024/03/17 09:33:16;;;;;;;9.80;9.40;;;21.20;49.10;;;;;;4994765;28;20352;-71
2024/03/17 09:35:44;;;;;;;8.73;8.40;;;21.20;48.50;;;;;;4994444;28;20447;-67
2024/03/17 09:38:11;;;;;;;10.97;10.10;;;21.10;48.00;;;;;;4995779;28;20455;-64
2024/03/17 09:40:38;;;;;;;9.60;9.13;;;21.00;48.00;;;;;;4994828;28;20447;-62
2024/03/17 09:43:05;;;;;;;9.93;9.53;;;21.00;48.10;;;;;;4994592;28;20882;-58
2024/03/17 09:45:33;;;;;;;10.47;9.97;;;21.00;48.50;;;;;;4994096;28;20451;-58
2024/03/17 09:48:00;;;;;;;9.70;9.37;;;21.00;48.20;;;;;;4994487;28;20462;-56
2024/03/17 09:50:28;;;;;;;10.30;9.80;;;20.90;48.00;;;;;;4995429;28;20443;-59
2024/03/17 09:52:57;;;;;;;9.60;9.30;;;20.90;48.10;;;;;;4994368;28;20506;-59
2024/03/17 09:55:24;;;;;;;9.13;8.83;;;20.90;48.10;;;;;;4993850;28;20454;-62
2024/03/17 09:57:51;;;;;;;9.77;9.27;;;20.90;48.00;;;;;;4994144;28;20475;-59
2024/03/17 10:00:18;;;;;;;8.83;8.50;;;20.80;48.00;;;;;;4994033;28;20439;-64
2024/03/17 10:02:45;;;;;;;9.43;9.10;;;20.80;48.20;;;;;;5006722;28;20442;-65
2024/03/17 10:05:23;;;;;;;8.00;7.70;;;20.80;48.50;;;;;;5011384;28;20454;-66
2024/03/17 10:07:50;;;;;;;9.67;9.27;;;20.90;49.50;;;;;;5013668;28;21001;-64
2024/03/17 10:10:19;;;;;;;8.50;8.20;;;21.10;49.00;;;;;;5006998;28;20478;-65
2024/03/17 10:12:50;;;;;;;8.47;8.10;;;21.10;49.10;;;;;;4993862;28;20439;-65
2024/03/17 10:15:18;;;;;;;9.00;8.70;;;21.20;49.30;;;;;;4993483;28;20442;-64
2024/03/17 10:17:46;;;;;;;9.10;8.57;;;21.20;49.20;;;;;;4997514;28;20466;-64
2024/03/17 10:20:16;;;;;;;9.10;8.80;;;21.10;49.10;;;;;;5013253;28;20450;-66
2024/03/17 10:23:03;;;;;;;8.50;8.00;;;21.10;49.50;;;;;;5013452;28;20489;-65
2024/03/17 10:25:34;;;;;;;7.57;7.37;;;21.20;49.90;;;;;;5012849;28;20540;-64
2024/03/17 10:28:02;;;;;;;9.73;9.33;;;21.10;49.80;;;;;;5012928;28;20485;-66
2024/03/17 10:30:30;;;;;;;8.20;7.90;;;21.20;50.00;;;;;;5008175;28;20469;-70
2024/03/17 10:32:58;;;;;;;8.33;8.13;;;21.20;50.10;;;;;;4997840;28;20500;-69
2024/03/17 10:35:32;;;;;;;9.90;9.50;;;21.30;50.30;;;;;;5001819;28;20423;-71
2024/03/17 10:38:00;;;;;;;10.73;10.20;;;21.30;50.40;;;;;;4993699;28;20475;-68
2024/03/17 10:40:29;;;;;;;8.43;8.13;;;21.30;50.50;;;;;;4993328;28;20827;-71
2024/03/17 10:42:59;;;;;;;8.57;8.27;;;21.30;50.50;;;;;;5002692;28;20446;-61
2024/03/17 10:45:30;;;;;;;8.53;8.30;;;21.30;50.40;;;;;;5012665;28;20445;-70
2024/03/17 10:48:00;;;;;;;8.40;8.10;;;21.40;50.60;;;;;;5012732;28;20462;-65
2024/03/17 10:50:31;;;;;;;8.80;8.30;;;21.40;50.40;;;;;;5012891;28;20559;-64
2024/03/17 10:53:03;;;;;;;7.90;7.70;;;21.40;50.30;;;;;;5012784;28;20453;-63
2024/03/17 10:55:36;;;;;;;8.80;8.50;;;21.30;50.20;;;;;;5012325;28;20504;-68
2024/03/17 10:58:09;;;;;;;10.20;9.60;;;21.40;50.70;;;;;;5010849;28;20985;-66
2024/03/17 11:00:37;;;;;;;8.57;8.27;;;21.40;50.60;;;;;;5012487;28;20434;-66
2024/03/17 11:03:09;;;;;;;8.63;8.27;;;21.40;51.30;;;;;;5012442;28;20470;-66
2024/03/17 11:05:38;;;;;;;9.30;8.90;;;21.40;50.80;;;;;;5011574;28;20546;-66
2024/03/17 11:08:07;;;;;;;8.90;8.70;;;21.30;50.60;;;;;;5012068;28;20971;-66
2024/03/17 11:10:36;;;;;;;8.80;8.50;;;21.40;50.50;;;;;;5012446;28;20482;-66
2024/03/17 11:13:05;;;;;;;8.60;8.10;;;21.40;50.80;;;;;;5011430;28;20788;-67
2024/03/17 11:15:42;;;;;;;8.03;7.80;;;21.40;51.10;;;;;;4972879;28;20458;-66
2024/03/17 11:18:39;;;;;;;8.57;8.33;;;21.30;51.10;;;;;;4973215;28;20487;-66
2024/03/17 11:21:10;;;;;;;9.23;8.63;;;21.40;51.90;;;;;;4951580;29;21002;-66
2024/03/17 11:23:38;;;;;;;10.07;9.37;;;21.40;51.80;;;;;;4968588;28;20456;-66
2024/03/17 11:26:06;;;;;;;10.10;9.20;;;21.40;52.60;;;;;;4985295;28;20521;-71
2024/03/17 11:28:47;;;;;;;11.00;8.30;;;21.40;54.70;;;;;;5000264;28;20812;-66
2024/03/17 11:31:41;;;;;;;16.27;10.73;;;21.40;58.70;;;;;;4997288;28;20505;-67
2024/03/17 11:34:41;;;;;;;16.20;9.57;;;21.50;58.40;;;;;;4997740;28;20434;-66
2024/03/17 11:37:08;;;;;;;13.10;9.60;;;21.50;58.50;;;;;;5009014;28;20477;-65
2024/03/17 11:39:56;;;;;;;12.90;8.97;;;21.40;57.60;;;;;;5011806;28;20477;-65
2024/03/17 11:42:24;;;;;;;10.13;9.13;;;21.50;56.10;;;;;;5011806;28;20446;-65
2024/03/17 11:45:09;;;;;;;9.50;8.87;;;21.40;55.30;;;;;;5011421;28;20449;-68
2024/03/17 11:47:38;;;;;;;11.93;9.93;;;21.50;55.40;;;;;;5011790;28;20465;-68
2024/03/17 11:50:05;;;;;;;9.80;9.30;;;21.50;55.30;;;;;;5011752;28;20489;-64
2024/03/17 11:52:32;;;;;;;9.80;9.20;;;21.40;55.10;;;;;;5011755;28;20449;-63
2024/03/17 11:54:58;;;;;;;9.40;8.70;;;21.40;54.70;;;;;;5011398;28;20453;-64
2024/03/17 11:57:26;;;;;;;9.20;8.60;;;21.40;53.80;;;;;;5011592;28;20835;-63
2024/03/17 11:59:53;;;;;;;8.90;8.50;;;21.40;53.50;;;;;;5011701;28;20203;-64
2024/03/17 12:02:23;;;;;;;8.90;8.43;;;21.50;53.70;;;;;;5011727;28;20442;-64
2024/03/17 12:04:49;;;;;;;10.37;9.87;;;21.40;53.20;;;;;;5011404;28;20438;-64
2024/03/17 12:07:17;;;;;;;9.60;9.00;;;21.40;52.80;;;;;;5011549;28;20473;-64
2024/03/17 12:09:45;;;;;;;8.90;8.60;;;21.30;52.50;;;;;;5011770;28;20477;-64
2024/03/17 12:12:17;;;;;;;8.77;8.47;;;21.40;52.60;;;;;;5011436;28;20449;-64
2024/03/17 12:14:44;;;;;;;8.60;8.30;;;21.30;52.70;;;;;;5011181;28;20438;-64
2024/03/17 12:17:13;;;;;;;8.33;7.90;;;21.30;52.90;;;;;;5011749;28;20504;-65
2024/03/17 12:19:44;;;;;;;8.70;8.33;;;21.30;52.70;;;;;;5011633;28;20445;-65
2024/03/17 12:22:17;;;;;;;8.83;8.33;;;21.30;52.20;;;;;;5011607;28;20446;-65
2024/03/17 12:24:45;;;;;;;9.07;8.43;;;21.30;52.20;;;;;;5011292;28;20793;-65
2024/03/17 12:27:18;;;;;;;8.07;7.67;;;21.30;51.80;;;;;;5014918;28;21009;-65
2024/03/17 12:29:45;;;;;;;8.27;7.77;;;21.30;51.30;;;;;;5015277;28;20489;-65
2024/03/17 12:32:15;;;;;;;8.43;8.10;;;21.30;51.30;;;;;;5015112;28;20446;-65
2024/03/17 12:34:43;;;;;;;7.73;7.50;;;21.30;51.00;;;;;;5014898;28;20449;-65
2024/03/17 12:37:17;;;;;;;7.33;7.13;;;21.30;50.90;;;;;;5014933;28;20465;-65
2024/03/17 12:39:43;;;;;;;8.03;7.63;;;21.30;51.10;;;;;;5015211;28;20437;-65
2024/03/17 12:42:13;;;;;;;8.10;7.80;;;21.30;51.20;;;;;;5015138;28;20910;-65
2024/03/17 12:44:41;;;;;;;7.90;7.60;;;21.30;51.20;;;;;;5015131;28;20446;-65
2024/03/17 12:47:14;;;;;;;8.30;8.10;;;21.30;51.20;;;;;;5015029;28;21040;-65
2024/03/17 12:49:46;;;;;;;8.23;7.73;;;21.30;51.60;;;;;;5015481;28;20485;-65
2024/03/17 12:52:19;;;;;;;6.97;6.87;;;21.30;51.40;;;;;;5015369;28;20759;-65
2024/03/17 12:54:52;;;;;;;8.13;7.83;;;21.20;51.50;;;;;;5015009;28;20446;-65